.
WxDataArchive / Data Records for 2015-05-17
2015-05-16 May 2015 2015-05-18

Data Records for Sunday, 17 May 2015

Time	Temp	Chill	HIndex	Humid	Dewpt	 Wind 	HiWind	WindDir	Rain 	Barom
-----	----	-----	------	-----	-----	------	------	-------	-----	-----
00:00	66.4	66.4	66.4	92	64.0	0	0	---	0.00	30.042 
00:05	66.4	66.4	66.4	92	64.0	0	0	---	0.00	30.042 
00:10	66.6	66.6	66.6	92	64.2	0	0	---	0.00	30.042 
00:15	66.6	66.6	66.6	92	64.2	0	0	---	0.00	30.041 
00:20	66.8	66.8	66.8	92	64.4	0	1	90	0.00	30.041 
00:25	66.8	66.8	66.8	92	64.4	0	0	---	0.00	30.041 
00:30	66.6	66.6	66.6	92	64.2	0	1	90	0.00	30.036 
00:35	66.6	66.6	66.6	92	64.2	0	1	90	0.00	30.036 
00:40	66.6	66.6	66.6	92	64.2	0	2	90	0.00	30.036 
00:45	66.4	66.4	66.4	92	64.0	0	0	---	0.00	30.034 
00:50	66.4	66.4	66.4	92	64.0	0	0	---	0.00	30.034 
00:55	66.4	66.4	66.4	92	64.0	0	0	---	0.00	30.034 
01:00	66.4	66.4	66.4	92	64.0	0	0	---	0.00	30.035 
01:05	66.4	66.4	66.4	92	64.0	0	0	---	0.00	30.035 
01:10	66.3	66.3	66.3	92	63.9	0	0	---	0.00	30.035 
01:15	66.1	66.1	66.1	92	63.7	0	0	---	0.00	30.036 
01:20	66.1	66.1	66.1	92	63.7	0	1	90	0.00	30.036 
01:25	66.1	66.1	66.1	92	63.7	0	1	90	0.00	30.036 
01:30	66.3	66.3	66.3	92	63.9	0	3	90	0.00	30.030 
01:35	66.3	66.3	66.3	92	63.9	0	1	90	0.00	30.030 
01:40	66.3	66.3	66.3	92	63.9	0	0	---	0.00	30.030 
01:45	66.1	66.1	66.1	92	63.7	0	0	---	0.00	30.025 
01:50	66.1	66.1	66.1	93	64.0	0	1	90	0.00	30.025 
01:55	66.1	66.1	66.1	93	64.0	0	0	---	0.00	30.025 
02:00	66.1	66.1	66.1	93	64.0	0	0	---	0.00	30.023 
02:05	66.1	66.1	66.1	93	64.0	0	0	---	0.00	30.023 
02:10	66.0	66.0	66.0	93	63.9	0	0	---	0.00	30.023 
02:15	65.8	65.8	65.8	93	63.7	0	0	---	0.00	30.033 
02:20	65.6	65.6	65.6	93	63.5	0	0	---	0.00	30.033 
02:25	65.5	65.5	65.5	93	63.4	0	0	---	0.00	30.033 
02:30	65.5	65.5	65.5	93	63.4	0	0	---	0.00	30.024 
02:35	65.5	65.5	65.5	93	63.4	0	0	---	0.00	30.024 
02:40	65.5	65.5	65.5	93	63.4	0	0	---	0.00	30.024 
02:45	65.3	65.3	65.3	93	63.2	0	0	---	0.00	30.026 
02:50	65.3	65.3	65.3	93	63.2	0	0	---	0.00	30.026 
02:55	65.3	65.3	65.3	93	63.2	0	0	---	0.00	30.026 
03:00	65.2	65.2	65.2	94	63.4	0	0	---	0.00	30.032 
03:05	65.2	65.2	65.2	94	63.4	0	0	---	0.00	30.032 
03:10	65.2	65.2	65.2	94	63.4	0	0	---	0.00	30.032 
03:15	65.2	65.2	65.2	94	63.4	0	0	---	0.00	30.027 
03:20	65.2	65.2	65.2	94	63.4	0	0	---	0.00	30.027 
03:25	65.2	65.2	65.2	94	63.4	0	0	---	0.00	30.027 
03:30	65.3	65.3	65.3	94	63.5	0	0	---	0.00	30.020 
03:35	65.3	65.3	65.3	94	63.5	0	0	---	0.00	30.020 
03:40	65.5	65.5	65.5	94	63.7	0	0	---	0.00	30.020 
03:45	65.3	65.3	65.3	94	63.5	0	0	---	0.00	30.024 
03:50	65.5	65.5	65.5	94	63.7	0	0	---	0.00	30.024 
03:55	65.5	65.5	65.5	94	63.7	0	0	---	0.00	30.024 
04:00	65.5	65.5	65.5	94	63.7	0	0	---	0.00	30.032 
04:05	65.5	65.5	65.5	94	63.7	0	0	---	0.00	30.032 
04:10	65.5	65.5	65.5	94	63.7	0	0	---	0.00	30.032 
04:15	65.5	65.5	65.5	95	64.0	0	0	---	0.00	30.032 
04:20	65.5	65.5	65.5	95	64.0	0	0	---	0.00	30.032 
04:25	65.5	65.5	65.5	95	64.0	0	0	---	0.00	30.032 
04:30	65.3	65.3	65.3	95	63.8	0	0	---	0.00	30.035 
04:35	65.3	65.3	65.3	95	63.8	0	0	---	0.00	30.035 
04:40	65.3	65.3	65.3	95	63.8	0	0	---	0.00	30.035 
04:45	65.3	65.3	65.3	95	63.8	0	0	---	0.00	30.033 
04:50	65.2	65.2	65.2	95	63.7	0	0	---	0.00	30.033 
04:55	65.2	65.2	65.2	95	63.7	0	0	---	0.00	30.033 
05:00	65.2	65.2	65.2	95	63.7	0	0	---	0.00	30.047 
05:05	65.2	65.2	65.2	95	63.7	0	0	---	0.00	30.047 
05:10	65.0	65.0	65.0	95	63.5	0	0	---	0.00	30.047 
05:15	64.8	64.8	64.8	95	63.3	0	0	---	0.00	30.051 
05:20	64.8	64.8	64.8	95	63.3	0	0	---	0.00	30.051 
05:25	64.8	64.8	64.8	95	63.3	0	0	---	0.00	30.051 
05:30	64.8	64.8	64.8	95	63.3	0	0	---	0.00	30.053 
05:35	64.8	64.8	64.8	95	63.3	0	0	---	0.00	30.053 
05:40	64.7	64.7	64.7	95	63.2	0	0	---	0.00	30.053 
05:45	64.5	64.5	64.5	95	63.0	0	0	---	0.00	30.051 
05:50	64.5	64.5	64.5	95	63.0	0	0	---	0.00	30.051 
05:55	64.3	64.3	64.3	95	62.8	0	0	---	0.00	30.051 
06:00	64.3	64.3	64.3	95	62.8	0	0	---	0.00	30.050 
06:05	64.3	64.3	64.3	95	62.8	0	0	---	0.00	30.050 
06:10	64.3	64.3	64.3	95	62.8	0	0	---	0.00	30.050 
06:15	64.5	64.5	64.5	95	63.0	0	0	---	0.00	30.055 
06:20	64.5	64.5	64.5	95	63.0	0	0	---	0.00	30.055 
06:25	64.5	64.5	64.5	95	63.0	0	0	---	0.00	30.055 
06:30	64.5	64.5	64.5	95	63.0	0	0	---	0.00	30.058 
06:35	64.7	64.7	64.7	95	63.2	0	0	---	0.00	30.058 
06:40	64.7	64.7	64.7	95	63.2	0	0	---	0.00	30.058 
06:45	64.7	64.7	64.7	95	63.2	0	0	---	0.00	30.054 
06:50	64.8	64.8	64.8	95	63.3	0	0	---	0.00	30.054 
06:55	64.8	64.8	64.8	95	63.3	0	0	---	0.00	30.054 
07:00	65.0	65.0	65.0	95	63.5	0	0	---	0.00	30.065 
07:05	65.0	65.0	65.0	96	63.8	0	0	---	0.00	30.065 
07:10	65.2	65.2	65.2	96	64.0	0	0	---	0.00	30.065 
07:15	65.3	65.3	65.3	96	64.1	0	0	---	0.00	30.068 
07:20	65.3	65.3	65.3	96	64.1	0	0	---	0.00	30.068 
07:25	65.5	65.5	65.5	96	64.3	0	0	---	0.00	30.068 
07:30	65.5	65.5	65.5	96	64.3	0	0	---	0.00	30.069 
07:35	65.6	65.6	65.6	96	64.4	0	0	---	0.00	30.069 
07:40	65.6	65.6	65.6	96	64.4	0	0	---	0.00	30.069 
07:45	65.6	65.6	65.6	95	64.1	0	0	---	0.00	30.070 
07:50	65.8	65.8	65.8	95	64.3	0	0	---	0.00	30.070 
07:55	65.8	65.8	65.8	95	64.3	0	0	---	0.00	30.070 
08:00	66.0	66.0	66.0	95	64.5	0	1	90	0.00	30.068 
08:05	66.0	66.0	66.0	95	64.5	0	0	---	0.00	30.068 
08:10	66.1	66.1	66.1	95	64.6	0	0	---	0.00	30.068 
08:15	66.3	66.3	66.3	95	64.8	0	1	90	0.00	30.066 
08:20	66.4	66.4	66.4	95	64.9	0	0	---	0.00	30.066 
08:25	66.6	66.6	66.6	95	65.1	0	0	---	0.00	30.066 
08:30	66.8	66.8	66.8	95	65.3	0	1	90	0.00	30.064 
08:35	66.9	66.9	66.9	95	65.4	0	0	---	0.00	30.064 
08:40	67.3	67.3	67.3	95	65.8	0	1	22	0.00	30.064 
08:45	67.6	67.6	67.6	95	66.1	0	1	22	0.00	30.064 
08:50	68.1	68.1	68.1	95	66.6	0	1	22	0.00	30.064 
08:55	68.8	68.8	68.8	95	67.3	0	0	---	0.00	30.064 
09:00	69.1	69.1	69.1	94	67.3	0	1	22	0.00	30.060 
09:05	69.3	69.3	69.3	93	67.2	0	1	22	0.00	30.060 
09:10	69.3	69.3	69.3	92	66.9	0	3	90	0.00	30.060 
09:15	69.3	69.3	69.3	92	66.9	0	2	90	0.00	30.062 
09:20	69.4	69.4	69.4	92	67.0	0	1	90	0.00	30.062 
09:25	69.4	69.4	69.4	91	66.7	1	5	90	0.00	30.062 
09:30	69.4	69.4	69.4	91	66.7	0	1	90	0.00	30.062 
09:35	69.6	69.6	69.6	90	66.5	0	2	112	0.00	30.062 
09:40	69.8	69.8	69.8	90	66.7	0	2	112	0.00	30.062 
09:45	70.1	70.1	70.1	90	67.0	0	1	112	0.00	30.050 
09:50	70.6	70.6	70.6	89	67.2	0	2	112	0.00	30.050 
09:55	70.9	70.9	70.9	88	67.2	0	1	112	0.00	30.050 
10:00	71.1	71.1	71.1	87	67.0	1	3	112	0.00	30.045 
10:05	71.1	71.1	71.1	86	66.7	0	2	112	0.00	30.045 
10:10	71.1	71.1	71.1	86	66.7	0	2	112	0.00	30.045 
10:15	71.1	71.1	71.1	86	66.7	0	2	112	0.00	30.039 
10:20	71.1	71.1	71.1	86	66.7	0	2	112	0.00	30.039 
10:25	71.3	71.3	71.3	86	66.9	0	3	112	0.00	30.039 
10:30	71.5	71.5	71.5	84	66.4	1	4	90	0.00	30.034 
10:35	71.5	71.5	71.5	84	66.4	1	2	135	0.00	30.034 
10:40	71.8	71.8	71.8	84	66.7	0	3	112	0.00	30.034 
10:45	72.0	72.0	72.0	83	66.5	1	3	112	0.00	30.032 
10:50	72.3	72.3	72.3	83	66.8	0	2	112	0.00	30.032 
10:55	72.7	72.7	72.7	82	66.9	1	5	112	0.00	30.032 
11:00	73.2	73.2	73.2	82	67.4	0	3	112	0.00	30.032 
11:05	73.5	73.5	73.5	81	67.3	0	3	112	0.00	30.032 
11:10	73.5	73.5	73.5	81	67.3	0	2	112	0.00	30.032 
11:15	73.7	73.7	73.7	80	67.1	1	5	112	0.00	30.033 
11:20	74.0	74.0	74.0	80	67.4	0	3	112	0.00	30.033 
11:25	74.6	74.6	74.6	79	67.6	1	3	112	0.00	30.033 
11:30	74.9	74.9	74.9	77	67.2	0	2	112	0.00	30.032 
11:35	75.1	75.1	76.1	77	67.4	1	3	112	0.00	30.032 
11:40	75.3	75.3	76.3	77	67.6	1	4	112	0.00	30.032 
11:45	75.3	75.3	76.3	77	67.6	1	3	112	0.00	30.030 
11:50	75.1	75.1	76.1	77	67.4	1	4	112	0.00	30.030 
11:55	74.9	74.9	74.9	77	67.2	1	3	180	0.00	30.030 
12:00	74.9	74.9	74.9	78	67.6	1	3	158	0.00	30.023 
12:05	75.6	75.6	76.6	78	68.2	0	2	158	0.00	30.023 
12:10	76.3	76.3	77.7	76	68.2	1	5	158	0.00	30.023 
12:15	77.2	77.2	79.0	74	68.3	1	4	112	0.00	30.013 
12:20	77.6	77.6	79.5	73	68.2	2	5	135	0.00	30.013 
12:25	77.9	77.9	79.9	72	68.1	1	5	112	0.00	30.013 
12:30	77.7	77.7	79.7	72	67.9	0	4	112	0.00	30.018 
12:35	77.4	77.4	79.3	72	67.6	1	4	90	0.00	30.018 
12:40	77.2	77.2	79.0	73	67.9	1	2	90	0.00	30.018 
12:45	77.4	77.4	79.3	74	68.4	0	3	90	0.00	30.015 
12:50	77.4	77.4	79.3	73	68.0	1	4	90	0.00	30.015 
12:55	77.4	77.4	79.3	73	68.0	1	4	90	0.00	30.015 
13:00	77.6	77.6	79.5	73	68.2	1	4	90	0.00	30.017 
13:05	77.4	77.4	79.3	74	68.4	1	3	90	0.00	30.017 
13:10	77.2	77.2	79.0	74	68.3	0	3	90	0.00	30.017 
13:15	77.0	77.0	78.7	73	67.7	2	5	90	0.00	30.025 
13:20	77.2	77.2	79.0	74	68.3	0	4	90	0.00	30.025 
13:25	77.2	77.2	79.0	74	68.3	1	3	90	0.00	30.025 
13:30	77.2	77.2	79.0	73	67.9	1	7	90	0.00	30.022 
13:35	77.6	77.6	79.5	73	68.2	1	3	248	0.00	30.022 
13:40	78.3	78.3	80.6	73	68.9	1	4	68	0.00	30.022 
13:45	78.6	78.6	80.9	71	68.4	1	5	68	0.00	30.016 
13:50	78.5	78.5	80.8	72	68.7	1	4	68	0.00	30.016 
13:55	79.0	79.0	81.6	72	69.2	1	10	90	0.00	30.016 
14:00	79.4	79.4	82.0	70	68.7	1	4	90	0.00	30.013 
14:05	79.2	79.2	81.6	69	68.1	2	7	68	0.00	30.013 
14:10	79.2	79.2	81.7	70	68.5	1	5	68	0.00	30.013 
14:15	79.4	79.4	82.0	70	68.7	1	3	90	0.00	30.010 
14:20	79.4	79.4	81.9	69	68.3	2	7	90	0.00	30.010 
14:25	79.4	79.4	81.9	69	68.3	2	6	112	0.00	30.010 
14:30	79.2	79.2	81.6	69	68.1	1	6	90	0.00	30.008 
14:35	79.2	79.2	81.6	69	68.1	1	5	248	0.00	30.008 
14:40	79.0	79.0	81.4	70	68.4	1	4	225	0.00	30.008 
14:45	79.0	79.0	81.4	70	68.4	1	5	202	0.00	30.001 
14:50	78.8	78.8	81.1	70	68.2	0	2	112	0.00	30.001 
14:55	78.6	78.6	80.8	70	68.0	0	5	68	0.00	30.001 
15:00	78.8	78.8	81.1	70	68.2	0	3	68	0.00	29.997 
15:05	78.8	78.8	81.1	70	68.2	1	6	90	0.00	29.997 
15:10	79.2	79.2	81.6	69	68.1	0	2	90	0.00	29.997 
15:15	79.6	79.6	82.2	69	68.5	1	3	90	0.00	29.995 
15:20	79.6	79.6	82.2	69	68.5	1	3	90	0.00	29.995 
15:25	79.6	79.6	82.1	68	68.1	0	3	90	0.00	29.995 
15:30	79.9	79.9	82.5	67	67.9	2	7	270	0.00	29.981 
15:35	80.3	80.3	83.0	67	68.3	0	2	270	0.00	29.981 
15:40	80.7	80.7	83.7	67	68.7	0	2	270	0.00	29.981 
15:45	81.1	81.1	84.1	66	68.6	0	3	270	0.00	29.972 
15:50	81.4	81.4	84.6	66	68.9	1	4	270	0.00	29.972 
15:55	81.6	81.6	84.7	65	68.7	0	3	248	0.00	29.972 
16:00	82.0	82.0	85.4	65	69.0	0	2	248	0.00	29.963 
16:05	82.2	82.2	85.7	65	69.2	1	4	315	0.00	29.963 
16:10	82.2	82.2	85.5	64	68.8	1	3	338	0.00	29.963 
16:15	82.2	82.2	85.7	65	69.2	0	2	338	0.00	29.959 
16:20	82.4	82.4	85.8	64	69.0	1	5	90	0.00	29.959 
16:25	82.2	82.2	85.3	63	68.3	1	5	225	0.00	29.959 
16:30	82.4	82.4	85.6	63	68.5	1	4	112	0.00	29.947 
16:35	82.4	82.4	85.8	64	69.0	1	4	90	0.00	29.947 
16:40	82.6	82.6	85.9	63	68.7	1	4	248	0.00	29.947 
16:45	82.8	82.8	86.1	62	68.4	0	2	248	0.00	29.933 
16:50	82.8	82.8	85.8	61	67.9	1	4	112	0.00	29.933 
16:55	82.6	82.6	85.5	61	67.8	1	6	112	0.00	29.933 
17:00	82.6	82.6	85.7	62	68.2	1	5	90	0.00	29.930 
17:05	82.4	82.4	85.0	60	67.1	2	7	90	0.00	29.930 
17:10	82.2	82.2	85.1	62	67.9	2	6	90	0.00	29.930 
17:15	81.8	81.8	84.3	61	67.0	1	9	90	0.00	29.933 
17:20	81.6	81.6	84.0	61	66.8	1	6	112	0.00	29.933 
17:25	81.6	81.6	84.0	61	66.8	1	4	112	0.00	29.933 
17:30	81.4	81.4	83.9	62	67.1	1	6	45	0.00	29.935 
17:35	81.8	81.8	84.5	62	67.5	0	1	45	0.00	29.935 
17:40	82.2	82.2	84.7	60	66.9	1	5	270	0.00	29.935 
17:45	82.2	82.2	84.7	60	66.9	1	5	112	0.00	29.946 
17:50	81.8	81.8	84.3	61	67.0	1	5	90	0.00	29.946 
17:55	81.4	81.4	83.8	61	66.6	1	4	90	0.00	29.946 
18:00	81.1	81.1	83.3	61	66.4	1	7	90	0.00	29.941 
18:05	80.9	80.9	83.2	62	66.6	1	5	68	0.00	29.941 
18:10	80.5	80.5	82.7	62	66.3	1	3	45	0.00	29.941 
18:15	80.3	80.3	82.5	63	66.5	0	2	45	0.00	29.935 
18:20	80.1	80.1	82.4	64	66.8	1	3	45	0.00	29.935 
18:25	80.1	80.1	82.4	64	66.8	0	3	90	0.00	29.935 
18:30	80.1	80.1	82.4	64	66.8	1	4	248	0.00	29.936 
18:35	80.1	80.1	82.5	65	67.2	0	3	315	0.00	29.936 
18:40	80.1	80.1	82.4	64	66.8	1	6	248	0.00	29.936 
18:45	80.1	80.1	82.4	64	66.8	1	3	45	0.00	29.935 
18:50	80.1	80.1	82.5	65	67.2	0	2	45	0.00	29.935 
18:55	79.9	79.9	82.2	65	67.1	1	5	45	0.00	29.935 
19:00	79.9	79.9	82.2	65	67.1	0	3	270	0.00	29.936 
19:05	79.8	79.8	82.1	65	67.0	0	3	315	0.00	29.936 
19:10	79.6	79.6	81.9	66	67.2	0	3	315	0.00	29.936 
19:15	79.6	79.6	81.9	66	67.2	0	1	315	0.00	29.936 
19:20	79.4	79.4	81.7	67	67.5	0	0	---	0.00	29.936 
19:25	79.2	79.2	81.5	67	67.3	0	3	315	0.00	29.936 
19:30	79.2	79.2	81.5	67	67.3	0	4	45	0.00	29.947 
19:35	79.0	79.0	81.2	67	67.1	0	3	338	0.00	29.947 
19:40	78.8	78.8	80.9	67	66.9	1	3	0	0.00	29.947 
19:45	78.8	78.8	80.9	67	66.9	0	3	68	0.00	29.951 
19:50	78.8	78.8	80.9	67	66.9	0	1	68	0.00	29.951 
19:55	78.6	78.6	80.7	67	66.7	1	3	45	0.00	29.951 
20:00	78.6	78.6	80.7	68	67.1	1	4	248	0.00	29.955 
20:05	78.5	78.5	80.6	68	67.0	0	1	248	0.00	29.955 
20:10	78.5	78.5	80.7	69	67.5	0	1	248	0.00	29.955 
20:15	78.3	78.3	80.5	72	68.5	0	1	248	0.01	29.959 
20:20	77.4	77.4	79.3	76	69.2	0	4	68	0.04	29.959 
20:25	76.3	76.3	77.5	80	69.7	0	2	68	0.00	29.959 
20:30	75.4	75.4	75.9	82	69.5	0	0	---	0.00	29.957 
20:35	74.7	74.7	74.7	83	69.2	0	0	---	0.00	29.957 
20:40	74.2	74.2	74.2	84	69.0	0	0	---	0.00	29.957 
20:45	73.9	73.9	73.9	85	69.1	0	0	---	0.00	29.960 
20:50	73.7	73.7	73.7	86	69.2	0	0	---	0.00	29.960 
20:55	73.5	73.5	73.5	87	69.4	0	0	---	0.00	29.960 
21:00	73.3	73.3	73.3	88	69.5	0	0	---	0.00	29.961 
21:05	73.2	73.2	73.2	88	69.4	0	0	---	0.00	29.961 
21:10	73.0	73.0	73.0	88	69.2	0	0	---	0.00	29.961 
21:15	72.8	72.8	72.8	88	69.0	0	0	---	0.00	29.963 
21:20	72.7	72.7	72.7	89	69.3	0	0	---	0.00	29.963 
21:25	72.7	72.7	72.7	89	69.3	0	0	---	0.00	29.963 
21:30	72.5	72.5	72.5	89	69.1	0	0	---	0.00	29.965 
21:35	72.5	72.5	72.5	89	69.1	0	0	---	0.00	29.965 
21:40	72.5	72.5	72.5	89	69.1	0	0	---	0.00	29.965 
21:45	72.5	72.5	72.5	90	69.4	0	0	---	0.00	29.966 
21:50	72.3	72.3	72.3	90	69.2	0	0	---	0.00	29.966 
21:55	72.3	72.3	72.3	90	69.2	0	0	---	0.00	29.966 
22:00	72.3	72.3	72.3	90	69.2	0	0	---	0.00	29.969 
22:05	72.3	72.3	72.3	90	69.2	0	0	---	0.00	29.969 
22:10	72.3	72.3	72.3	89	68.9	0	0	---	0.00	29.969 
22:15	72.3	72.3	72.3	89	68.9	0	1	68	0.00	29.968 
22:20	72.5	72.5	72.5	89	69.1	0	2	68	0.00	29.968 
22:25	72.7	72.7	72.7	88	68.9	0	1	68	0.00	29.968 
22:30	72.7	72.7	72.7	88	68.9	0	1	68	0.00	29.975 
22:35	72.8	72.8	72.8	88	69.0	0	2	68	0.00	29.975 
22:40	72.8	72.8	72.8	87	68.7	0	1	68	0.00	29.975 
22:45	72.8	72.8	72.8	87	68.7	0	1	68	0.00	29.978 
22:50	72.8	72.8	72.8	87	68.7	0	1	68	0.00	29.978 
22:55	72.7	72.7	72.7	87	68.6	0	1	68	0.00	29.978 
23:00	72.5	72.5	72.5	87	68.4	0	1	68	0.00	29.976 
23:05	72.3	72.3	72.3	87	68.2	0	1	68	0.00	29.976 
23:10	72.3	72.3	72.3	88	68.5	0	1	68	0.00	29.976 
23:15	72.1	72.1	72.1	88	68.3	0	1	68	0.00	29.975 
23:20	72.0	72.0	72.0	88	68.2	0	0	---	0.00	29.975 
23:25	72.0	72.0	72.0	88	68.2	0	1	68	0.00	29.975 
23:30	71.8	71.8	71.8	88	68.0	0	0	---	0.00	29.974 
23:35	71.8	71.8	71.8	88	68.0	0	1	68	0.00	29.974 
23:40	71.6	71.6	71.6	89	68.2	0	0	---	0.00	29.974 
23:45	71.6	71.6	71.6	89	68.2	0	1	68	0.00	29.977 
23:50	71.6	71.6	71.6	89	68.2	0	1	68	0.00	29.977 
23:55	71.5	71.5	71.5	89	68.1	0	0	---	0.00	29.977 

CoCoRaHS
IN-AL-39
A2 Web Hosting
Creative Commons License
GoDaddy
search engine by freefind advanced

loaded 2018-11-20 14:29:54 • last modified 2010-11-18 10:43:29
Privacy PolicyDisclaimer
• wx.awcolley.com is powered by PmWiki v.2002016 •
• all content (unless otherwise noted) © 2018 A W Colley